createdAt,value
2023-01-20T00:01:49.388Z,6.40
2023-01-20T00:04:19.440Z,9.75
2023-01-20T00:06:50.084Z,5.75
2023-01-20T00:09:18.674Z,4.22
2023-01-20T00:11:46.901Z,9.75
2023-01-20T00:14:14.621Z,7.00
2023-01-20T00:16:43.333Z,6.68
2023-01-20T00:19:16.308Z,9.10
2023-01-20T00:21:44.075Z,10.98
2023-01-20T00:24:14.752Z,7.32
2023-01-20T00:26:45.467Z,8.40
2023-01-20T00:29:15.107Z,8.35
2023-01-20T00:31:45.055Z,4.07
2023-01-20T00:34:12.593Z,5.85
2023-01-20T00:36:39.903Z,9.40
2023-01-20T00:39:13.576Z,29.70
2023-01-20T00:41:41.099Z,62.22
2023-01-20T00:44:13.400Z,50.70
2023-01-20T00:46:45.754Z,24.75
2023-01-20T00:49:13.519Z,53.45
2023-01-20T00:51:41.014Z,36.53
2023-01-20T00:54:11.481Z,29.00
2023-01-20T00:56:38.838Z,24.38
2023-01-20T00:59:06.423Z,40.03
2023-01-20T01:01:34.117Z,19.25
2023-01-20T01:04:01.443Z,44.42
2023-01-20T01:06:31.182Z,44.38
2023-01-20T01:09:03.938Z,57.45
2023-01-20T01:11:34.323Z,93.07
2023-01-20T01:14:06.675Z,80.47
2023-01-20T01:16:36.854Z,67.80
2023-01-20T01:19:07.112Z,76.63
2023-01-20T01:24:07.117Z,86.88
2023-01-20T01:26:37.866Z,116.90
2023-01-20T01:29:05.339Z,67.63
2023-01-20T01:31:35.810Z,103.65
2023-01-20T01:34:06.241Z,33.95
2023-01-20T01:36:36.676Z,37.13
2023-01-20T01:39:06.449Z,24.77
2023-01-20T01:41:38.357Z,40.35
2023-01-20T01:44:08.073Z,51.30
2023-01-20T01:46:35.895Z,37.25
2023-01-20T01:49:26.793Z,92.15
2023-01-20T01:52:01.546Z,89.50
2023-01-20T01:54:39.290Z,110.15
2023-01-20T01:57:10.145Z,104.18
2023-01-20T01:59:44.003Z,87.35
2023-01-20T02:02:11.306Z,95.53
2023-01-20T02:04:41.350Z,91.93
2023-01-20T02:07:15.749Z,104.45
2023-01-20T02:09:48.285Z,98.80
2023-01-20T02:12:18.983Z,28.40
2023-01-20T02:14:57.955Z,16.98
2023-01-20T02:17:34.538Z,24.88
2023-01-20T02:20:24.028Z,37.78
2023-01-20T02:23:02.468Z,51.80
2023-01-20T02:25:44.722Z,88.07
2023-01-20T02:28:24.298Z,93.70
2023-01-20T02:31:14.793Z,93.18
2023-01-20T02:34:06.911Z,78.25
2023-01-20T02:36:44.180Z,124.40
2023-01-20T02:39:27.451Z,151.38
2023-01-20T02:42:38.089Z,24.10
2023-01-20T02:45:27.485Z,27.38
2023-01-20T02:48:06.140Z,6.50
2023-01-20T02:50:45.008Z,5.70
2023-01-20T02:53:14.705Z,6.07
2023-01-20T02:55:47.288Z,11.98
2023-01-20T02:58:35.114Z,7.60
2023-01-20T03:01:07.721Z,9.10
2023-01-20T03:03:38.997Z,9.85
2023-01-20T03:06:24.171Z,4.95
2023-01-20T03:08:53.573Z,57.50
2023-01-20T03:11:24.681Z,94.30
2023-01-20T03:14:06.228Z,95.88
2023-01-20T03:16:36.265Z,80.28
2023-01-20T03:19:03.988Z,58.67
2023-01-20T03:21:35.285Z,10.73
2023-01-20T03:24:06.317Z,46.35
2023-01-20T03:26:33.980Z,45.65
2023-01-20T03:29:12.730Z,43.08
2023-01-20T03:31:50.737Z,75.88
2023-01-20T03:34:21.431Z,38.40
2023-01-20T03:36:52.718Z,27.17
2023-01-20T03:39:20.957Z,58.75
2023-01-20T03:42:23.475Z,64.22
2023-01-20T03:45:07.970Z,55.08
2023-01-20T03:47:44.718Z,59.33
2023-01-20T03:50:44.202Z,46.28
2023-01-20T03:53:45.618Z,38.47
2023-01-20T03:56:21.727Z,46.38
2023-01-20T03:58:53.665Z,11.85
2023-01-20T04:01:34.720Z,28.60
2023-01-20T04:04:04.224Z,37.47
2023-01-20T04:06:33.937Z,56.35
2023-01-20T04:09:10.990Z,67.65
2023-01-20T04:11:38.958Z,69.70
2023-01-20T04:14:10.012Z,53.78
2023-01-20T04:16:40.987Z,85.72
2023-01-20T04:19:11.659Z,140.88
2023-01-20T04:21:45.770Z,18.08
2023-01-20T04:24:20.310Z,7.50
2023-01-20T04:26:47.801Z,7.03
2023-01-20T04:29:15.409Z,8.50
2023-01-20T04:31:48.046Z,9.77
2023-01-20T04:34:18.129Z,8.80
2023-01-20T04:36:48.233Z,16.40
2023-01-20T04:39:18.878Z,25.75
2023-01-20T04:41:49.658Z,43.85
2023-01-20T04:44:19.845Z,73.32
2023-01-20T04:46:50.281Z,82.82
2023-01-20T04:49:22.927Z,87.20
2023-01-20T04:51:52.766Z,114.63
2023-01-20T04:54:20.195Z,85.53
2023-01-20T04:56:56.870Z,102.13
2023-01-20T04:59:24.542Z,66.30
2023-01-20T05:01:51.823Z,117.78
2023-01-20T05:04:19.424Z,107.07
2023-01-20T05:06:49.381Z,6.47
2023-01-20T05:09:17.670Z,77.70
2023-01-20T05:11:45.495Z,4.32
2023-01-20T05:14:15.603Z,11.88
2023-01-20T05:16:43.076Z,4.40
2023-01-20T05:19:12.818Z,11.77
2023-01-20T05:24:16.686Z,14.35
2023-01-20T05:26:47.004Z,13.52
2023-01-20T05:31:43.661Z,10.80
2023-01-20T05:34:11.694Z,11.70
2023-01-20T05:36:42.517Z,13.27
2023-01-20T05:39:10.430Z,21.30
2023-01-20T05:41:38.116Z,29.98
2023-01-20T05:44:05.640Z,26.48
2023-01-20T05:46:36.498Z,8.85
2023-01-20T05:49:04.047Z,5.35
2023-01-20T05:51:33.833Z,5.25
2023-01-20T05:54:03.933Z,9.63
2023-01-20T05:56:37.067Z,10.90
2023-01-20T05:59:06.355Z,15.95
2023-01-20T06:01:37.032Z,24.05
2023-01-20T06:04:04.513Z,5.93
2023-01-20T06:06:35.180Z,14.07
2023-01-20T06:09:02.724Z,7.63
2023-01-20T06:11:34.089Z,7.47
2023-01-20T06:14:02.208Z,12.93
2023-01-20T06:16:32.714Z,11.77
2023-01-20T06:19:00.303Z,7.28
2023-01-20T06:21:30.201Z,15.70
2023-01-20T06:24:00.736Z,12.48
2023-01-20T06:26:28.186Z,14.10
2023-01-20T06:29:00.561Z,18.00
2023-01-20T06:31:34.354Z,24.70
2023-01-20T06:34:04.387Z,21.10
2023-01-20T06:36:31.833Z,26.30
2023-01-20T06:38:59.498Z,24.13
2023-01-20T06:41:29.120Z,22.08
2023-01-20T06:43:56.839Z,25.75
2023-01-20T06:46:24.473Z,15.82
2023-01-20T06:49:00.838Z,18.42
2023-01-20T06:51:33.462Z,43.20
2023-01-20T06:54:00.814Z,19.73
2023-01-20T06:56:28.482Z,19.08
2023-01-20T06:58:56.158Z,13.82
2023-01-20T07:01:28.863Z,20.52
2023-01-20T07:03:56.869Z,8.05
2023-01-20T07:06:35.821Z,19.17
2023-01-20T07:09:03.478Z,18.50
2023-01-20T07:11:32.620Z,9.95
2023-01-20T07:14:01.126Z,16.40
2023-01-20T07:16:31.928Z,17.42
2023-01-20T07:19:02.628Z,12.75
2023-01-20T07:21:33.050Z,14.52
2023-01-20T07:24:01.954Z,19.38
2023-01-20T07:26:29.862Z,14.75
2023-01-20T07:29:04.473Z,28.58
2023-01-20T07:31:35.333Z,14.02
2023-01-20T07:34:03.004Z,10.15
2023-01-20T07:36:34.333Z,13.60
2023-01-20T07:39:02.207Z,13.30
2023-01-20T07:41:29.683Z,14.35
2023-01-20T07:43:57.414Z,19.45
2023-01-20T07:46:24.981Z,18.10
2023-01-20T07:48:56.459Z,17.65
2023-01-20T07:51:27.048Z,21.77
2023-01-20T07:53:58.037Z,22.23
2023-01-20T07:56:31.303Z,18.00
2023-01-20T07:59:02.168Z,30.75
2023-01-20T08:01:32.133Z,19.15
2023-01-20T08:04:02.539Z,20.50
2023-01-20T08:06:33.190Z,18.65
2023-01-20T08:09:04.257Z,20.13
2023-01-20T08:11:32.635Z,21.45
2023-01-20T08:13:59.970Z,21.10
2023-01-20T08:16:28.382Z,29.48
2023-01-20T08:18:58.448Z,50.05
2023-01-20T08:21:31.498Z,34.85
2023-01-20T08:24:12.421Z,28.40
2023-01-20T08:26:44.421Z,51.20
2023-01-20T08:29:12.209Z,32.58
2023-01-20T08:31:42.160Z,45.47
2023-01-20T08:34:14.774Z,22.88
2023-01-20T08:36:42.746Z,22.50
2023-01-20T08:39:15.064Z,28.08
2023-01-20T08:41:44.583Z,39.03
2023-01-20T08:44:16.476Z,22.38
2023-01-20T08:46:52.817Z,27.67
2023-01-20T08:49:23.470Z,21.67
2023-01-20T08:51:53.402Z,30.30
2023-01-20T08:54:23.088Z,34.90
2023-01-20T08:56:54.907Z,35.60
2023-01-20T08:59:22.862Z,27.95
2023-01-20T09:01:50.563Z,36.40
2023-01-20T09:04:18.607Z,61.17
2023-01-20T09:06:49.764Z,48.15
2023-01-20T09:09:21.039Z,26.70
2023-01-20T09:11:51.332Z,30.38
2023-01-20T09:14:22.542Z,48.90
2023-01-20T09:16:50.146Z,48.38
2023-01-20T09:19:17.886Z,56.95
2023-01-20T09:21:49.196Z,40.40
2023-01-20T09:24:19.237Z,21.58
2023-01-20T09:26:53.444Z,42.05
2023-01-20T09:29:28.039Z,19.80
2023-01-20T09:32:02.958Z,32.72
2023-01-20T09:34:32.078Z,31.10
2023-01-20T09:37:22.068Z,24.75
2023-01-20T09:40:13.421Z,30.02
2023-01-20T09:43:21.334Z,38.95
2023-01-20T09:46:06.010Z,32.88
2023-01-20T09:49:13.482Z,33.88
2023-01-20T09:54:37.476Z,37.88
2023-01-20T09:57:11.026Z,35.03
2023-01-20T09:59:44.609Z,56.63
2023-01-20T10:02:21.964Z,58.47
2023-01-20T10:04:59.132Z,18.15
2023-01-20T10:07:56.327Z,58.47
2023-01-20T10:10:32.655Z,53.40
2023-01-20T10:13:24.946Z,40.72
2023-01-20T10:15:55.264Z,33.15
2023-01-20T10:18:44.391Z,61.05
2023-01-20T10:21:20.814Z,33.75
2023-01-20T10:26:42.313Z,32.85
2023-01-20T10:29:22.737Z,32.83
2023-01-20T10:31:59.208Z,27.70
2023-01-20T10:34:38.339Z,31.90
2023-01-20T10:37:10.918Z,25.13
2023-01-20T10:40:00.147Z,23.42
2023-01-20T10:42:29.255Z,33.78
2023-01-20T10:45:02.759Z,37.47
2023-01-20T10:47:46.947Z,25.33
2023-01-20T10:50:36.392Z,35.67
2023-01-20T10:53:39.167Z,56.35
2023-01-20T10:56:34.299Z,39.38
2023-01-20T10:59:17.092Z,38.15
2023-01-20T11:02:02.435Z,39.13
2023-01-20T11:04:38.580Z,34.25
2023-01-20T11:07:09.977Z,29.63
2023-01-20T11:09:42.876Z,25.33
2023-01-20T11:12:24.992Z,46.35
2023-01-20T11:15:00.556Z,51.50
2023-01-20T11:17:30.727Z,42.50
2023-01-20T11:22:41.165Z,51.85
2023-01-20T11:25:24.983Z,22.38
2023-01-20T11:27:59.822Z,23.55
2023-01-20T11:30:32.301Z,29.52
2023-01-20T11:33:21.239Z,25.33
2023-01-20T11:36:21.764Z,25.42
2023-01-20T11:38:51.193Z,37.15
2023-01-20T11:41:26.878Z,39.63
2023-01-20T11:44:01.103Z,44.20
2023-01-20T11:46:37.559Z,76.43
2023-01-20T11:49:22.372Z,51.70
2023-01-20T11:51:56.740Z,35.97
2023-01-20T11:54:33.869Z,45.30
2023-01-20T11:57:09.926Z,34.80
2023-01-20T11:59:49.453Z,52.55
2023-01-20T12:02:28.112Z,37.40
2023-01-20T12:05:18.055Z,37.88
2023-01-20T12:07:51.804Z,46.92
2023-01-20T12:10:30.879Z,49.15
2023-01-20T12:13:23.166Z,67.43
2023-01-20T12:15:56.819Z,77.13
2023-01-20T12:18:33.576Z,40.25
2023-01-20T12:21:10.864Z,42.08
2023-01-20T12:23:56.649Z,46.25
2023-01-20T12:26:25.738Z,40.92
2023-01-20T12:29:11.571Z,50.30
2023-01-20T12:31:43.576Z,34.45
2023-01-20T12:34:16.696Z,34.55
2023-01-20T12:36:55.352Z,42.05
2023-01-20T12:39:42.357Z,46.63
2023-01-20T12:42:28.828Z,32.28
2023-01-20T12:45:20.322Z,27.75
2023-01-20T12:48:09.551Z,46.85
2023-01-20T12:50:58.965Z,61.67
2023-01-20T12:53:46.177Z,88.78
2023-01-20T12:56:39.995Z,79.25
2023-01-20T12:59:31.899Z,50.60
2023-01-20T13:02:18.820Z,52.55
2023-01-20T13:05:03.267Z,37.78
2023-01-20T13:08:01.345Z,49.75
2023-01-20T13:11:07.214Z,49.65
2023-01-20T13:13:56.849Z,25.33
2023-01-20T13:16:51.268Z,46.75
2023-01-20T13:19:33.529Z,48.05
2023-01-20T13:22:11.044Z,50.70
2023-01-20T13:24:45.486Z,51.78
2023-01-20T13:27:21.387Z,59.47
2023-01-20T13:30:03.637Z,32.83
2023-01-20T13:32:40.283Z,48.63
2023-01-20T13:35:28.461Z,43.30
2023-01-20T13:37:57.766Z,100.20
2023-01-20T13:40:37.842Z,80.00
2023-01-20T13:43:28.682Z,59.35
2023-01-20T13:46:20.248Z,27.58
2023-01-20T13:49:23.875Z,50.05
2023-01-20T13:51:54.303Z,30.95
2023-01-20T13:54:32.855Z,35.95
2023-01-20T13:57:28.005Z,37.90
2023-01-20T13:59:56.218Z,46.42
2023-01-20T14:02:28.825Z,28.48
2023-01-20T14:05:00.248Z,16.73
2023-01-20T14:07:31.133Z,35.60
2023-01-20T14:10:04.035Z,41.83
2023-01-20T14:12:43.143Z,37.35
2023-01-20T14:15:29.261Z,38.17
2023-01-20T14:17:58.025Z,43.45
2023-01-20T14:20:31.675Z,67.57
2023-01-20T14:23:38.120Z,25.75
2023-01-20T14:26:12.363Z,32.90
2023-01-20T14:29:16.902Z,32.95
2023-01-20T14:31:46.096Z,32.45
2023-01-20T14:34:32.231Z,51.15
2023-01-20T14:37:16.867Z,49.22
2023-01-20T14:39:49.936Z,33.63
2023-01-20T14:42:23.564Z,36.95
2023-01-20T14:44:56.427Z,27.95
2023-01-20T14:47:27.278Z,27.70
2023-01-20T14:49:55.683Z,22.00
2023-01-20T14:52:35.157Z,20.15
2023-01-20T14:55:09.218Z,19.20
2023-01-20T14:57:45.943Z,38.72
2023-01-20T15:00:19.826Z,36.17
2023-01-20T15:03:10.364Z,55.03
2023-01-20T15:05:45.086Z,33.47
2023-01-20T15:08:16.120Z,32.17
2023-01-20T15:11:08.371Z,28.23
2023-01-20T15:13:41.509Z,22.00
2023-01-20T15:16:26.956Z,33.63
2023-01-20T15:19:22.988Z,30.52
2023-01-20T15:21:58.595Z,78.82
2023-01-20T15:24:34.663Z,22.00
2023-01-20T15:27:03.452Z,29.13
2023-01-20T15:29:37.135Z,16.70
2023-01-20T15:32:12.367Z,22.50
2023-01-20T15:34:39.726Z,33.35
2023-01-20T15:37:17.125Z,25.17
2023-01-20T15:39:45.156Z,16.60
2023-01-20T15:42:16.041Z,23.95
2023-01-20T15:44:48.224Z,10.23
2023-01-20T15:47:30.926Z,12.63
2023-01-20T15:50:00.821Z,11.13
2023-01-20T15:52:28.454Z,10.38
2023-01-20T15:54:58.408Z,14.00
2023-01-20T15:57:26.085Z,23.67
2023-01-20T15:59:56.932Z,26.75
2023-01-20T16:02:24.650Z,12.38
2023-01-20T16:04:55.503Z,14.40
2023-01-20T16:07:23.197Z,19.60
2023-01-20T16:09:53.909Z,17.23
2023-01-20T16:12:25.388Z,16.23
2023-01-20T16:14:52.892Z,16.33
2023-01-20T16:17:21.775Z,18.80
2023-01-20T16:19:52.272Z,9.98
2023-01-20T16:22:22.325Z,23.25
2023-01-20T16:24:51.325Z,8.10
2023-01-20T16:27:24.148Z,16.08
2023-01-20T16:29:57.247Z,17.75
2023-01-20T16:32:28.155Z,12.43
2023-01-20T16:34:55.887Z,10.10
2023-01-20T16:37:26.102Z,5.00
2023-01-20T16:42:26.656Z,33.40
2023-01-20T16:44:54.180Z,10.25
2023-01-20T16:47:21.901Z,49.25
2023-01-20T16:49:54.910Z,19.40
2023-01-20T16:52:26.159Z,14.15
2023-01-20T16:54:53.561Z,14.15
2023-01-20T16:57:23.605Z,9.55
2023-01-20T16:59:51.183Z,6.82
2023-01-20T17:02:18.734Z,9.65
2023-01-20T17:04:48.461Z,6.47
2023-01-20T17:07:19.143Z,21.13
2023-01-20T17:09:47.747Z,10.77
2023-01-20T17:12:16.814Z,10.20
2023-01-20T17:14:49.986Z,5.60
2023-01-20T17:17:22.941Z,8.93
2023-01-20T17:19:50.701Z,11.93
2023-01-20T17:22:23.823Z,14.07
2023-01-20T17:24:53.936Z,10.77
2023-01-20T17:27:21.623Z,18.60
2023-01-20T17:29:49.235Z,6.80
2023-01-20T17:32:16.726Z,4.53
2023-01-20T17:34:47.582Z,6.20
2023-01-20T17:37:15.531Z,17.85
2023-01-20T17:39:47.940Z,6.22
2023-01-20T17:42:17.624Z,2.88
2023-01-20T17:44:45.471Z,3.85
2023-01-20T17:47:15.747Z,7.82
2023-01-20T17:52:13.579Z,5.22
2023-01-20T17:54:44.242Z,20.48
2023-01-20T17:57:11.878Z,12.75
2023-01-20T17:59:39.507Z,3.38
2023-01-20T18:02:07.790Z,2.58
2023-01-20T18:04:39.844Z,2.50
2023-01-20T18:07:07.421Z,8.18
2023-01-20T18:09:37.719Z,4.38
2023-01-20T18:12:05.784Z,3.88
2023-01-20T18:14:35.749Z,2.33
2023-01-20T18:17:03.538Z,1.67
2023-01-20T18:19:31.286Z,11.07
2023-01-20T18:22:02.032Z,2.83
2023-01-20T18:24:29.777Z,6.32
2023-01-20T18:26:59.678Z,4.18
2023-01-20T18:29:30.272Z,2.83
2023-01-20T18:31:58.330Z,5.90
2023-01-20T18:34:26.060Z,4.65
2023-01-20T18:36:53.708Z,6.47
2023-01-20T18:39:27.187Z,6.22
2023-01-20T18:41:55.210Z,3.53
2023-01-20T18:44:24.292Z,5.88
2023-01-20T18:46:51.967Z,5.15
2023-01-20T18:49:22.597Z,4.75
2023-01-20T18:51:50.456Z,2.83
2023-01-20T18:54:25.929Z,5.30
2023-01-20T18:56:53.817Z,5.25
2023-01-20T18:59:24.514Z,7.20
2023-01-20T19:01:52.321Z,4.20
2023-01-20T19:04:20.103Z,1.55
2023-01-20T19:06:47.997Z,4.85
2023-01-20T19:09:16.932Z,5.70
2023-01-20T19:11:45.631Z,3.15
2023-01-20T19:14:17.701Z,1.58
2023-01-20T19:16:49.175Z,6.63
2023-01-20T19:19:20.767Z,6.82
2023-01-20T19:21:51.812Z,3.67
2023-01-20T19:24:22.754Z,4.50
2023-01-20T19:26:52.686Z,14.75
2023-01-20T19:29:23.104Z,3.00
2023-01-20T19:31:52.127Z,6.22
2023-01-20T19:34:19.844Z,3.75
2023-01-20T19:36:49.738Z,3.55
2023-01-20T19:39:20.336Z,2.53
2023-01-20T19:41:47.930Z,2.60
2023-01-20T19:44:15.638Z,1.88
2023-01-20T19:46:43.349Z,2.53
2023-01-20T19:49:11.827Z,1.65
2023-01-20T19:51:39.679Z,3.83
2023-01-20T19:54:07.405Z,1.98
2023-01-20T19:56:36.696Z,2.92
2023-01-20T19:59:06.063Z,2.63
2023-01-20T20:01:35.458Z,3.92
2023-01-20T20:04:08.626Z,1.40
2023-01-20T20:06:37.031Z,2.65
2023-01-20T20:09:26.938Z,3.00
2023-01-20T20:11:57.793Z,2.55
2023-01-20T20:14:29.623Z,3.72
2023-01-20T20:16:59.614Z,2.53
2023-01-20T20:19:27.210Z,2.58
2023-01-20T20:21:58.759Z,1.52
2023-01-20T20:24:26.321Z,2.63
2023-01-20T20:26:58.387Z,1.85
2023-01-20T20:29:26.333Z,2.05
2023-01-20T20:31:53.912Z,3.70
2023-01-20T20:34:21.532Z,2.17
2023-01-20T20:36:48.988Z,3.45
2023-01-20T20:39:18.189Z,4.40
2023-01-20T20:41:46.212Z,2.25
2023-01-20T20:44:13.906Z,3.15
2023-01-20T20:46:44.797Z,2.67
2023-01-20T20:49:19.114Z,2.97
2023-01-20T20:51:49.375Z,1.85
2023-01-20T20:56:47.416Z,2.90
2023-01-20T20:59:15.405Z,5.22
2023-01-20T21:01:43.087Z,3.72
2023-01-20T21:04:11.710Z,4.30
2023-01-20T21:06:42.853Z,1.80
2023-01-20T21:09:12.496Z,4.25
2023-01-20T21:11:43.378Z,3.33
2023-01-20T21:14:13.893Z,4.78
2023-01-20T21:16:41.660Z,3.50
2023-01-20T21:19:09.371Z,2.35
2023-01-20T21:21:39.279Z,2.20
2023-01-20T21:24:13.988Z,2.22
2023-01-20T21:26:46.580Z,4.95
2023-01-20T21:29:14.275Z,3.47
2023-01-20T21:31:41.945Z,2.75
2023-01-20T21:34:14.493Z,1.60
2023-01-20T21:36:44.869Z,3.45
2023-01-20T21:39:15.992Z,3.05
2023-01-20T21:41:43.999Z,2.03
2023-01-20T21:44:30.144Z,2.63
2023-01-20T21:46:58.361Z,2.83
2023-01-20T21:49:44.204Z,2.65
2023-01-20T21:52:32.062Z,6.47
2023-01-20T21:55:01.793Z,6.72
2023-01-20T21:57:32.745Z,2.17
2023-01-20T22:00:01.440Z,4.93
2023-01-20T22:02:29.615Z,1.45
2023-01-20T22:04:57.390Z,5.80
2023-01-20T22:07:25.257Z,1.80
2023-01-20T22:09:58.005Z,1.52
2023-01-20T22:12:26.147Z,4.25
2023-01-20T22:14:53.917Z,7.45
2023-01-20T22:17:21.973Z,4.68
2023-01-20T22:19:49.695Z,4.10
2023-01-20T22:22:19.856Z,3.45
2023-01-20T22:24:47.262Z,0.77
2023-01-20T22:27:17.203Z,2.15
2023-01-20T22:29:44.772Z,2.67
2023-01-20T22:32:14.579Z,2.10
2023-01-20T22:34:45.119Z,2.42
2023-01-20T22:37:15.921Z,4.28
2023-01-20T22:39:43.144Z,1.38
2023-01-20T22:42:10.817Z,1.40
2023-01-20T22:44:38.392Z,2.67
2023-01-20T22:47:10.875Z,4.57
2023-01-20T22:49:43.132Z,3.35
2023-01-20T22:52:10.787Z,3.72
2023-01-20T22:54:41.178Z,2.38
2023-01-20T22:57:08.772Z,3.83
2023-01-20T22:59:36.334Z,1.92
2023-01-20T23:02:06.348Z,2.28
2023-01-20T23:04:36.314Z,1.80
2023-01-20T23:07:03.935Z,2.97
2023-01-20T23:09:32.471Z,3.28
2023-01-20T23:12:00.203Z,1.40
2023-01-20T23:14:46.457Z,2.05
2023-01-20T23:17:13.911Z,8.18
2023-01-20T23:19:41.601Z,2.78
2023-01-20T23:22:11.423Z,1.75
2023-01-20T23:24:38.994Z,3.88
2023-01-20T23:27:06.191Z,4.65
2023-01-20T23:29:33.769Z,4.53
2023-01-20T23:32:01.633Z,2.22
2023-01-20T23:34:29.276Z,2.47
2023-01-20T23:36:57.465Z,2.15
2023-01-20T23:39:25.137Z,4.32
2023-01-20T23:41:53.081Z,2.60
2023-01-20T23:44:22.795Z,1.73
2023-01-20T23:46:50.490Z,4.20
2023-01-20T23:49:22.597Z,2.42
2023-01-20T23:51:50.548Z,1.58
2023-01-20T23:54:20.586Z,1.38
2023-01-20T23:56:48.204Z,2.58
2023-01-20T23:59:21.240Z,3.03
